sensor_id;sensor_type;location;lat;lon;timestamp;pressure;altitude;pressure_sealevel;temperature;humidity
70217;BME280;65567;55.684;37.570;2023-02-11T00:00:08;99089.00;;;1.24;55.84
70217;BME280;65567;55.684;37.570;2023-02-11T00:02:34;99094.88;;;1.32;55.52
70217;BME280;65567;55.684;37.570;2023-02-11T00:05:02;99094.44;;;1.06;56.42
70217;BME280;65567;55.684;37.570;2023-02-11T00:07:30;99097.00;;;1.07;56.78
70217;BME280;65567;55.684;37.570;2023-02-11T00:09:56;99097.72;;;1.17;56.16
70217;BME280;65567;55.684;37.570;2023-02-11T00:12:23;99088.38;;;1.08;56.29
70217;BME280;65567;55.684;37.570;2023-02-11T00:14:49;99087.72;;;0.92;56.76
70217;BME280;65567;55.684;37.570;2023-02-11T00:17:15;99098.97;;;0.88;56.93
70217;BME280;65567;55.684;37.570;2023-02-11T00:19:41;99100.53;;;1.00;56.66
70217;BME280;65567;55.684;37.570;2023-02-11T00:22:07;99097.84;;;1.08;56.72
70217;BME280;65567;55.684;37.570;2023-02-11T00:24:35;99086.63;;;1.10;56.58
70217;BME280;65567;55.684;37.570;2023-02-11T00:27:01;99091.63;;;1.23;55.95
70217;BME280;65567;55.684;37.570;2023-02-11T00:29:27;99099.53;;;1.09;56.16
70217;BME280;65567;55.684;37.570;2023-02-11T00:31:53;99095.28;;;1.06;56.44
70217;BME280;65567;55.684;37.570;2023-02-11T00:34:20;99096.97;;;1.09;56.12
70217;BME280;65567;55.684;37.570;2023-02-11T00:36:46;99108.88;;;1.18;56.10
70217;BME280;65567;55.684;37.570;2023-02-11T00:39:14;99103.03;;;1.05;55.86
70217;BME280;65567;55.684;37.570;2023-02-11T00:41:40;99102.22;;;1.01;56.21
70217;BME280;65567;55.684;37.570;2023-02-11T00:44:06;99102.38;;;0.92;56.06
70217;BME280;65567;55.684;37.570;2023-02-11T00:46:33;99112.94;;;0.70;57.18
70217;BME280;65567;55.684;37.570;2023-02-11T00:48:58;99119.00;;;0.68;57.34
70217;BME280;65567;55.684;37.570;2023-02-11T00:51:25;99117.19;;;0.76;57.47
70217;BME280;65567;55.684;37.570;2023-02-11T00:53:52;99123.03;;;0.90;56.90
70217;BME280;65567;55.684;37.570;2023-02-11T00:56:18;99120.38;;;0.93;56.75
70217;BME280;65567;55.684;37.570;2023-02-11T00:58:44;99120.25;;;1.06;56.38
70217;BME280;65567;55.684;37.570;2023-02-11T01:01:11;99115.09;;;1.03;56.04
70217;BME280;65567;55.684;37.570;2023-02-11T01:03:38;99123.00;;;0.92;56.19
70217;BME280;65567;55.684;37.570;2023-02-11T01:06:06;99127.34;;;0.88;56.24
70217;BME280;65567;55.684;37.570;2023-02-11T01:08:33;99119.03;;;0.64;56.95
70217;BME280;65567;55.684;37.570;2023-02-11T01:11:03;99117.22;;;0.73;56.79
70217;BME280;65567;55.684;37.570;2023-02-11T01:13:30;99121.75;;;0.54;57.08
70217;BME280;65567;55.684;37.570;2023-02-11T01:15:56;99129.69;;;0.35;57.63
70217;BME280;65567;55.684;37.570;2023-02-11T01:18:23;99140.00;;;0.37;57.67
70217;BME280;65567;55.684;37.570;2023-02-11T01:20:50;99130.50;;;0.39;57.48
70217;BME280;65567;55.684;37.570;2023-02-11T01:23:17;99133.28;;;0.20;58.06
70217;BME280;65567;55.684;37.570;2023-02-11T01:25:43;99134.84;;;0.37;57.76
70217;BME280;65567;55.684;37.570;2023-02-11T01:28:22;99137.38;;;0.40;57.58
70217;BME280;65567;55.684;37.570;2023-02-11T01:30:49;99144.19;;;0.47;57.59
70217;BME280;65567;55.684;37.570;2023-02-11T01:33:16;99149.19;;;0.58;57.27
70217;BME280;65567;55.684;37.570;2023-02-11T01:35:42;99138.22;;;0.39;57.32
70217;BME280;65567;55.684;37.570;2023-02-11T01:38:15;99145.25;;;0.27;57.42
70217;BME280;65567;55.684;37.570;2023-02-11T01:40:46;99155.59;;;0.21;57.67
70217;BME280;65567;55.684;37.570;2023-02-11T01:43:12;99157.22;;;0.31;57.84
70217;BME280;65567;55.684;37.570;2023-02-11T01:48:28;99146.72;;;0.50;57.14
70217;BME280;65567;55.684;37.570;2023-02-11T01:51:14;99145.78;;;0.56;57.11
70217;BME280;65567;55.684;37.570;2023-02-11T01:53:41;99144.03;;;0.58;57.11
70217;BME280;65567;55.684;37.570;2023-02-11T01:56:28;99152.63;;;0.57;56.57
70217;BME280;65567;55.684;37.570;2023-02-11T01:59:29;99137.19;;;0.57;56.63
70217;BME280;65567;55.684;37.570;2023-02-11T02:02:01;99144.88;;;0.61;55.98
70217;BME280;65567;55.684;37.570;2023-02-11T02:04:35;99136.28;;;0.59;56.09
70217;BME280;65567;55.684;37.570;2023-02-11T02:07:09;99132.91;;;0.57;55.96
70217;BME280;65567;55.684;37.570;2023-02-11T02:09:42;99137.16;;;0.58;55.59
70217;BME280;65567;55.684;37.570;2023-02-11T02:12:09;99122.66;;;0.48;55.73
70217;BME280;65567;55.684;37.570;2023-02-11T02:14:39;99134.63;;;0.55;55.62
70217;BME280;65567;55.684;37.570;2023-02-11T02:17:09;99135.25;;;0.73;54.80
70217;BME280;65567;55.684;37.570;2023-02-11T02:20:10;99133.47;;;0.81;54.76
70217;BME280;65567;55.684;37.570;2023-02-11T02:23:15;99138.41;;;0.95;54.48
70217;BME280;65567;55.684;37.570;2023-02-11T02:26:15;99142.56;;;1.08;53.92
70217;BME280;65567;55.684;37.570;2023-02-11T02:32:13;99151.28;;;0.98;54.10
70217;BME280;65567;55.684;37.570;2023-02-11T02:34:58;99147.75;;;1.05;54.27
70217;BME280;65567;55.684;37.570;2023-02-11T02:37:33;99157.25;;;1.03;54.37
70217;BME280;65567;55.684;37.570;2023-02-11T02:40:05;99147.63;;;1.13;54.26
70217;BME280;65567;55.684;37.570;2023-02-11T02:42:34;99147.56;;;1.19;54.06
70217;BME280;65567;55.684;37.570;2023-02-11T02:45:01;99144.16;;;1.17;53.78
70217;BME280;65567;55.684;37.570;2023-02-11T02:47:27;99140.78;;;1.13;53.90
70217;BME280;65567;55.684;37.570;2023-02-11T02:49:53;99148.53;;;1.12;54.29
70217;BME280;65567;55.684;37.570;2023-02-11T02:52:56;99147.56;;;1.19;54.49
70217;BME280;65567;55.684;37.570;2023-02-11T02:58:15;99137.78;;;1.41;53.49
70217;BME280;65567;55.684;37.570;2023-02-11T03:01:01;99131.56;;;1.53;53.40
70217;BME280;65567;55.684;37.570;2023-02-11T03:03:34;99131.53;;;1.56;52.91
70217;BME280;65567;55.684;37.570;2023-02-11T03:06:12;99140.38;;;1.40;53.22
70217;BME280;65567;55.684;37.570;2023-02-11T03:09:20;99133.50;;;1.42;53.10
70217;BME280;65567;55.684;37.570;2023-02-11T03:11:49;99140.47;;;1.34;53.50
70217;BME280;65567;55.684;37.570;2023-02-11T03:14:16;99137.47;;;1.63;52.62
70217;BME280;65567;55.684;37.570;2023-02-11T03:16:44;99136.66;;;1.59;52.35
70217;BME280;65567;55.684;37.570;2023-02-11T03:21:43;99139.16;;;1.05;53.73
70217;BME280;65567;55.684;37.570;2023-02-11T03:24:15;99136.31;;;1.23;53.67
70217;BME280;65567;55.684;37.570;2023-02-11T03:26:55;99135.50;;;1.21;53.35
70217;BME280;65567;55.684;37.570;2023-02-11T03:29:54;99136.16;;;1.36;52.94
70217;BME280;65567;55.684;37.570;2023-02-11T03:32:37;99134.44;;;1.35;52.74
70217;BME280;65567;55.684;37.570;2023-02-11T03:37:44;99126.06;;;1.20;53.11
70217;BME280;65567;55.684;37.570;2023-02-11T03:40:21;99116.59;;;1.19;52.95
70217;BME280;65567;55.684;37.570;2023-02-11T03:43:00;99116.66;;;1.16;52.62
70217;BME280;65567;55.684;37.570;2023-02-11T03:45:28;99121.69;;;1.25;52.40
70217;BME280;65567;55.684;37.570;2023-02-11T03:47:59;99116.78;;;1.05;52.91
70217;BME280;65567;55.684;37.570;2023-02-11T03:50:29;99118.00;;;0.79;53.56
70217;BME280;65567;55.684;37.570;2023-02-11T03:52:57;99121.75;;;0.54;54.38
70217;BME280;65567;55.684;37.570;2023-02-11T03:55:26;99116.38;;;0.72;54.27
70217;BME280;65567;55.684;37.570;2023-02-11T03:57:53;99118.09;;;0.70;54.06
70217;BME280;65567;55.684;37.570;2023-02-11T04:00:19;99119.16;;;0.55;55.09
70217;BME280;65567;55.684;37.570;2023-02-11T04:02:45;99120.00;;;0.57;54.94
70217;BME280;65567;55.684;37.570;2023-02-11T04:05:14;99120.00;;;0.57;54.68
70217;BME280;65567;55.684;37.570;2023-02-11T04:07:40;99113.88;;;0.64;54.27
70217;BME280;65567;55.684;37.570;2023-02-11T04:10:06;99108.91;;;0.52;54.78
70217;BME280;65567;55.684;37.570;2023-02-11T04:12:32;99116.50;;;0.61;54.38
70217;BME280;65567;55.684;37.570;2023-02-11T04:14:58;99108.84;;;0.55;54.14
70217;BME280;65567;55.684;37.570;2023-02-11T04:17:24;99115.84;;;0.47;54.51
70217;BME280;65567;55.684;37.570;2023-02-11T04:19:50;99114.19;;;0.38;54.69
70217;BME280;65567;55.684;37.570;2023-02-11T04:22:16;99117.63;;;0.39;54.77
70217;BME280;65567;55.684;37.570;2023-02-11T04:24:42;99118.56;;;0.33;55.07
70217;BME280;65567;55.684;37.570;2023-02-11T04:27:08;99111.59;;;0.40;55.17
70217;BME280;65567;55.684;37.570;2023-02-11T04:29:35;99102.94;;;0.47;54.76
70217;BME280;65567;55.684;37.570;2023-02-11T04:32:01;99096.22;;;0.33;54.71
70217;BME280;65567;55.684;37.570;2023-02-11T04:34:27;99091.91;;;0.32;54.56
70217;BME280;65567;55.684;37.570;2023-02-11T04:36:53;99103.19;;;0.24;54.88
70217;BME280;65567;55.684;37.570;2023-02-11T04:39:19;99098.84;;;0.30;54.74
70217;BME280;65567;55.684;37.570;2023-02-11T04:41:45;99107.63;;;0.08;54.89
70217;BME280;65567;55.684;37.570;2023-02-11T04:44:12;99099.09;;;0.06;55.19
70217;BME280;65567;55.684;37.570;2023-02-11T04:46:38;99094.78;;;0.06;55.05
70217;BME280;65567;55.684;37.570;2023-02-11T04:49:04;99102.59;;;0.00;55.18
70217;BME280;65567;55.684;37.570;2023-02-11T04:51:30;99112.09;;;-0.05;55.23
70217;BME280;65567;55.684;37.570;2023-02-11T04:53:56;99112.06;;;-0.07;55.58
70217;BME280;65567;55.684;37.570;2023-02-11T04:56:22;99118.06;;;-0.05;55.19
70217;BME280;65567;55.684;37.570;2023-02-11T04:58:49;99099.28;;;-0.13;55.58
70217;BME280;65567;55.684;37.570;2023-02-11T05:01:15;99109.50;;;-0.04;55.49
70217;BME280;65567;55.684;37.570;2023-02-11T05:03:42;99108.63;;;-0.03;55.56
70217;BME280;65567;55.684;37.570;2023-02-11T05:06:09;99113.72;;;0.02;54.92
70217;BME280;65567;55.684;37.570;2023-02-11T05:08:35;99106.84;;;0.01;55.12
70217;BME280;65567;55.684;37.570;2023-02-11T05:11:01;99100.00;;;0.02;54.88
70217;BME280;65567;55.684;37.570;2023-02-11T05:13:28;99104.47;;;-0.18;55.49
70217;BME280;65567;55.684;37.570;2023-02-11T05:15:54;99095.91;;;-0.21;55.39
70217;BME280;65567;55.684;37.570;2023-02-11T05:18:21;99095.00;;;-0.14;55.49
70217;BME280;65567;55.684;37.570;2023-02-11T05:20:47;99106.19;;;-0.18;55.41
70217;BME280;65567;55.684;37.570;2023-02-11T05:23:13;99102.59;;;-0.02;54.98
70217;BME280;65567;55.684;37.570;2023-02-11T05:25:40;99110.28;;;0.03;55.67
70217;BME280;65567;55.684;37.570;2023-02-11T05:28:06;99110.91;;;0.25;54.83
70217;BME280;65567;55.684;37.570;2023-02-11T05:30:32;99103.84;;;0.41;54.51
70217;BME280;65567;55.684;37.570;2023-02-11T05:32:58;99110.69;;;0.44;54.36
70217;BME280;65567;55.684;37.570;2023-02-11T05:35:24;99112.25;;;0.59;53.63
70217;BME280;65567;55.684;37.570;2023-02-11T05:37:50;99097.56;;;0.62;53.85
70217;BME280;65567;55.684;37.570;2023-02-11T05:40:17;99114.72;;;0.68;53.53
70217;BME280;65567;55.684;37.570;2023-02-11T05:42:43;99107.03;;;0.63;53.84
70217;BME280;65567;55.684;37.570;2023-02-11T05:45:09;99107.78;;;0.70;53.76
70217;BME280;65567;55.684;37.570;2023-02-11T05:47:38;99111.28;;;0.69;53.90
70217;BME280;65567;55.684;37.570;2023-02-11T05:50:04;99101.53;;;0.91;53.49
70217;BME280;65567;55.684;37.570;2023-02-11T05:52:31;99094.47;;;1.03;53.01
70217;BME280;65567;55.684;37.570;2023-02-11T05:54:57;99103.09;;;1.02;52.90
70217;BME280;65567;55.684;37.570;2023-02-11T05:57:23;99103.13;;;0.98;53.07
70217;BME280;65567;55.684;37.570;2023-02-11T05:59:49;99109.84;;;1.12;53.23
70217;BME280;65567;55.684;37.570;2023-02-11T06:02:15;99107.00;;;1.27;52.56
70217;BME280;65567;55.684;37.570;2023-02-11T06:04:41;99101.13;;;1.19;52.84
70217;BME280;65567;55.684;37.570;2023-02-11T06:07:08;99105.50;;;1.14;52.53
70217;BME280;65567;55.684;37.570;2023-02-11T06:09:36;99101.38;;;1.01;52.84
70217;BME280;65567;55.684;37.570;2023-02-11T06:12:02;99117.13;;;0.80;53.33
70217;BME280;65567;55.684;37.570;2023-02-11T06:14:28;99108.47;;;0.86;53.45
70217;BME280;65567;55.684;37.570;2023-02-11T06:16:54;99110.13;;;0.90;53.40
70217;BME280;65567;55.684;37.570;2023-02-11T06:19:21;99112.63;;;0.96;53.45
70217;BME280;65567;55.684;37.570;2023-02-11T06:21:47;99101.31;;;1.05;52.88
70217;BME280;65567;55.684;37.570;2023-02-11T06:24:13;99109.22;;;0.94;53.07
70217;BME280;65567;55.684;37.570;2023-02-11T06:26:39;99111.88;;;0.88;53.36
70217;BME280;65567;55.684;37.570;2023-02-11T06:29:06;99102.63;;;0.70;53.73
70217;BME280;65567;55.684;37.570;2023-02-11T06:31:32;99104.94;;;0.92;53.52
70217;BME280;65567;55.684;37.570;2023-02-11T06:33:58;99102.03;;;1.15;52.83
70217;BME280;65567;55.684;37.570;2023-02-11T06:36:24;99080.72;;;1.02;52.95
70217;BME280;65567;55.684;37.570;2023-02-11T06:38:50;99089.38;;;0.99;53.20
70217;BME280;65567;55.684;37.570;2023-02-11T06:41:17;99096.03;;;1.14;52.61
70217;BME280;65567;55.684;37.570;2023-02-11T06:43:45;99097.72;;;1.17;52.63
70217;BME280;65567;55.684;37.570;2023-02-11T06:46:11;99094.94;;;1.29;52.25
70217;BME280;65567;55.684;37.570;2023-02-11T06:48:37;99093.13;;;1.36;52.01
70217;BME280;65567;55.684;37.570;2023-02-11T06:51:09;99098.22;;;1.41;52.43
70217;BME280;65567;55.684;37.570;2023-02-11T06:53:37;99101.25;;;1.66;51.77
70217;BME280;65567;55.684;37.570;2023-02-11T06:56:05;99093.22;;;1.83;51.27
70217;BME280;65567;55.684;37.570;2023-02-11T06:58:32;99091.06;;;2.07;50.89
70217;BME280;65567;55.684;37.570;2023-02-11T07:00:58;99095.28;;;2.58;50.68
70217;BME280;65567;55.684;37.570;2023-02-11T07:03:25;99093.63;;;3.34;49.62
70217;BME280;65567;55.684;37.570;2023-02-11T07:05:51;99084.88;;;4.07;48.05
70217;BME280;65567;55.684;37.570;2023-02-11T07:08:17;99089.09;;;4.74;46.82
70217;BME280;65567;55.684;37.570;2023-02-11T07:10:43;99086.50;;;5.30;45.97
70217;BME280;65567;55.684;37.570;2023-02-11T07:13:09;99085.75;;;6.07;45.21
70217;BME280;65567;55.684;37.570;2023-02-11T07:15:36;99097.72;;;6.60;43.27
70217;BME280;65567;55.684;37.570;2023-02-11T07:18:02;99085.91;;;6.75;42.54
70217;BME280;65567;55.684;37.570;2023-02-11T07:20:28;99086.53;;;6.82;41.56
70217;BME280;65567;55.684;37.570;2023-02-11T07:22:54;99078.84;;;6.79;41.72
70217;BME280;65567;55.684;37.570;2023-02-11T07:25:21;99078.78;;;6.81;41.16
70217;BME280;65567;55.684;37.570;2023-02-11T07:27:47;99084.94;;;6.31;41.50
70217;BME280;65567;55.684;37.570;2023-02-11T07:30:15;99086.47;;;6.36;41.92
70217;BME280;65567;55.684;37.570;2023-02-11T07:32:41;99076.25;;;6.79;41.43
70217;BME280;65567;55.684;37.570;2023-02-11T07:35:07;99062.09;;;7.31;40.51
70217;BME280;65567;55.684;37.570;2023-02-11T07:37:34;99070.38;;;7.63;39.21
70217;BME280;65567;55.684;37.570;2023-02-11T07:40:00;99072.84;;;7.86;38.55
70217;BME280;65567;55.684;37.570;2023-02-11T07:42:26;99064.22;;;8.05;38.41
70217;BME280;65567;55.684;37.570;2023-02-11T07:44:52;99063.50;;;8.22;37.38
70217;BME280;65567;55.684;37.570;2023-02-11T07:47:18;99056.16;;;8.11;37.05
70217;BME280;65567;55.684;37.570;2023-02-11T07:49:44;99060.84;;;7.82;38.00
70217;BME280;65567;55.684;37.570;2023-02-11T07:52:10;99065.34;;;7.78;37.48
70217;BME280;65567;55.684;37.570;2023-02-11T07:54:36;99053.19;;;7.79;37.50
70217;BME280;65567;55.684;37.570;2023-02-11T07:57:03;99056.28;;;7.67;37.68
70217;BME280;65567;55.684;37.570;2023-02-11T07:59:29;99059.78;;;7.66;37.33
70217;BME280;65567;55.684;37.570;2023-02-11T08:01:55;99062.59;;;7.18;37.45
70217;BME280;65567;55.684;37.570;2023-02-11T08:04:21;99071.47;;;6.90;37.81
70217;BME280;65567;55.684;37.570;2023-02-11T08:06:48;99051.88;;;6.80;38.14
70217;BME280;65567;55.684;37.570;2023-02-11T08:09:17;99057.31;;;6.52;38.43
70217;BME280;65567;55.684;37.570;2023-02-11T08:11:44;99051.47;;;6.45;38.91
70217;BME280;65567;55.684;37.570;2023-02-11T08:14:10;99050.44;;;6.25;39.35
70217;BME280;65567;55.684;37.570;2023-02-11T08:16:38;99047.25;;;6.17;39.29
70217;BME280;65567;55.684;37.570;2023-02-11T08:19:15;99045.75;;;6.11;39.45
70217;BME280;65567;55.684;37.570;2023-02-11T08:21:41;99044.84;;;6.13;39.38
70217;BME280;65567;55.684;37.570;2023-02-11T08:24:08;99046.50;;;6.14;39.40
70217;BME280;65567;55.684;37.570;2023-02-11T08:26:35;99040.69;;;6.07;39.63
70217;BME280;65567;55.684;37.570;2023-02-11T08:29:08;99035.69;;;6.01;39.59
70217;BME280;65567;55.684;37.570;2023-02-11T08:31:37;99036.56;;;6.01;39.39
70217;BME280;65567;55.684;37.570;2023-02-11T08:34:04;99034.34;;;5.63;40.25
70217;BME280;65567;55.684;37.570;2023-02-11T08:36:33;99024.28;;;5.54;40.44
70217;BME280;65567;55.684;37.570;2023-02-11T08:39:01;99029.56;;;5.51;40.53
70217;BME280;65567;55.684;37.570;2023-02-11T08:41:33;99016.63;;;5.50;40.63
70217;BME280;65567;55.684;37.570;2023-02-11T08:44:00;99016.19;;;5.37;40.63
70217;BME280;65567;55.684;37.570;2023-02-11T08:46:26;99016.28;;;5.34;41.06
70217;BME280;65567;55.684;37.570;2023-02-11T08:48:53;99007.84;;;5.27;40.69
70217;BME280;65567;55.684;37.570;2023-02-11T08:51:24;99010.59;;;5.22;41.05
70217;BME280;65567;55.684;37.570;2023-02-11T08:53:53;99004.13;;;4.80;41.18
70217;BME280;65567;55.684;37.570;2023-02-11T08:56:21;99011.72;;;4.28;41.99
70217;BME280;65567;55.684;37.570;2023-02-11T08:58:51;99002.19;;;4.29;42.37
70217;BME280;65567;55.684;37.570;2023-02-11T09:01:25;98990.50;;;4.14;42.79
70217;BME280;65567;55.684;37.570;2023-02-11T09:03:52;98989.53;;;4.18;42.43
70217;BME280;65567;55.684;37.570;2023-02-11T09:06:19;98974.06;;;3.84;43.08
70217;BME280;65567;55.684;37.570;2023-02-11T09:08:48;98971.44;;;3.85;43.52
70217;BME280;65567;55.684;37.570;2023-02-11T09:11:16;98956.53;;;3.93;43.52
70217;BME280;65567;55.684;37.570;2023-02-11T09:13:43;98950.13;;;3.75;44.10
70217;BME280;65567;55.684;37.570;2023-02-11T09:16:19;98939.63;;;3.80;44.15
70217;BME280;65567;55.684;37.570;2023-02-11T09:18:46;98943.31;;;3.71;44.31
70217;BME280;65567;55.684;37.570;2023-02-11T09:21:14;98926.69;;;3.80;43.95
70217;BME280;65567;55.684;37.570;2023-02-11T09:23:42;98923.53;;;3.69;44.47
70217;BME280;65567;55.684;37.570;2023-02-11T09:26:20;98918.03;;;3.81;44.53
70217;BME280;65567;55.684;37.570;2023-02-11T09:28:47;98907.47;;;3.87;44.30
70217;BME280;65567;55.684;37.570;2023-02-11T09:31:15;98903.13;;;3.56;44.94
70217;BME280;65567;55.684;37.570;2023-02-11T09:33:44;98907.91;;;3.72;44.72
70217;BME280;65567;55.684;37.570;2023-02-11T09:36:17;98899.97;;;3.78;44.58
70217;BME280;65567;55.684;37.570;2023-02-11T09:38:43;98896.97;;;3.62;44.85
70217;BME280;65567;55.684;37.570;2023-02-11T09:44:40;98896.69;;;3.40;45.83
70217;BME280;65567;55.684;37.570;2023-02-11T09:47:23;98889.81;;;3.39;45.68
70217;BME280;65567;55.684;37.570;2023-02-11T09:49:55;98879.88;;;3.23;46.05
70217;BME280;65567;55.684;37.570;2023-02-11T09:52:35;98879.28;;;3.13;46.54
70217;BME280;65567;55.684;37.570;2023-02-11T09:57:47;98874.28;;;2.71;47.94
70217;BME280;65567;55.684;37.570;2023-02-11T10:03:03;98869.63;;;2.86;47.98
70217;BME280;65567;55.684;37.570;2023-02-11T10:05:41;98873.72;;;2.94;47.69
70217;BME280;65567;55.684;37.570;2023-02-11T10:08:36;98863.13;;;2.69;48.31
70217;BME280;65567;55.684;37.570;2023-02-11T10:14:05;98853.88;;;2.60;48.70
70217;BME280;65567;55.684;37.570;2023-02-11T10:16:54;98865.97;;;2.58;48.94
70217;BME280;65567;55.684;37.570;2023-02-11T10:20:24;98852.63;;;2.41;49.43
70217;BME280;65567;55.684;37.570;2023-02-11T10:22:31;98838.56;;;2.53;49.01
70217;BME280;65567;55.684;37.570;2023-02-11T10:25:14;98836.09;;;2.46;49.37
70217;BME280;65567;55.684;37.570;2023-02-11T10:27:44;98837.94;;;2.41;49.49
70217;BME280;65567;55.684;37.570;2023-02-11T10:30:25;98827.75;;;2.35;49.70
70217;BME280;65567;55.684;37.570;2023-02-11T10:33:01;98816.44;;;2.41;49.46
70217;BME280;65567;55.684;37.570;2023-02-11T10:35:28;98816.44;;;2.41;49.52
70217;BME280;65567;55.684;37.570;2023-02-11T10:37:54;98808.38;;;2.53;49.17
70217;BME280;65567;55.684;37.570;2023-02-11T10:40:27;98795.47;;;2.15;50.13
70217;BME280;65567;55.684;37.570;2023-02-11T10:42:57;98795.25;;;2.25;49.80
70217;BME280;65567;55.684;37.570;2023-02-11T10:45:29;98793.69;;;2.19;50.13
70217;BME280;65567;55.684;37.570;2023-02-11T10:47:56;98795.75;;;2.41;49.65
70217;BME280;65567;55.684;37.570;2023-02-11T10:50:29;98778.09;;;2.22;49.99
70217;BME280;65567;55.684;37.570;2023-02-11T10:53:16;98774.56;;;2.26;49.74
70217;BME280;65567;55.684;37.570;2023-02-11T10:55:53;98778.34;;;2.11;50.33
70217;BME280;65567;55.684;37.570;2023-02-11T10:58:33;98759.69;;;2.00;50.15
70217;BME280;65567;55.684;37.570;2023-02-11T11:01:01;98760.81;;;1.88;50.37
70217;BME280;65567;55.684;37.570;2023-02-11T11:03:35;98762.06;;;2.08;49.99
70217;BME280;65567;55.684;37.570;2023-02-11T11:06:07;98754.09;;;2.17;50.03
70217;BME280;65567;55.684;37.570;2023-02-11T11:11:11;98742.00;;;2.19;49.85
70217;BME280;65567;55.684;37.570;2023-02-11T11:14:00;98746.91;;;2.30;49.89
70217;BME280;65567;55.684;37.570;2023-02-11T11:16:30;98736.41;;;2.36;49.50
70217;BME280;65567;55.684;37.570;2023-02-11T11:21:35;98730.84;;;2.17;49.95
70217;BME280;65567;55.684;37.570;2023-02-11T11:24:32;98718.59;;;2.25;49.56
70217;BME280;65567;55.684;37.570;2023-02-11T11:27:03;98714.00;;;2.37;49.35
70217;BME280;65567;55.684;37.570;2023-02-11T11:29:45;98704.84;;;2.23;49.41
70217;BME280;65567;55.684;37.570;2023-02-11T11:32:26;98699.69;;;2.23;49.50
70217;BME280;65567;55.684;37.570;2023-02-11T11:34:55;98686.13;;;2.48;48.71
70217;BME280;65567;55.684;37.570;2023-02-11T11:37:37;98673.13;;;2.51;48.56
70217;BME280;65567;55.684;37.570;2023-02-11T11:40:26;98676.50;;;2.53;48.47
70217;BME280;65567;55.684;37.570;2023-02-11T11:45:55;98674.31;;;2.71;48.04
70217;BME280;65567;55.684;37.570;2023-02-11T11:51:14;98663.34;;;2.92;47.14
70217;BME280;65567;55.684;37.570;2023-02-11T11:58:41;98641.75;;;2.32;48.00
70217;BME280;65567;55.684;37.570;2023-02-11T12:04:33;98638.72;;;2.49;47.78
70217;BME280;65567;55.684;37.570;2023-02-11T12:10:20;98639.13;;;2.34;48.20
70217;BME280;65567;55.684;37.570;2023-02-11T12:12:54;98624.91;;;2.17;48.67
70217;BME280;65567;55.684;37.570;2023-02-11T12:15:33;98624.91;;;2.17;48.53
70217;BME280;65567;55.684;37.570;2023-02-11T12:24:10;98630.59;;;1.97;48.65
70217;BME280;65567;55.684;37.570;2023-02-11T12:27:49;98592.03;;;1.91;48.77
70217;BME280;65567;55.684;37.570;2023-02-11T12:32:55;98608.09;;;1.68;49.07
70217;BME280;65567;55.684;37.570;2023-02-11T12:36:14;98608.31;;;1.58;49.25
70217;BME280;65567;55.684;37.570;2023-02-11T12:39:16;98591.16;;;1.56;49.39
70217;BME280;65567;55.684;37.570;2023-02-11T12:41:56;98597.31;;;1.52;49.61
70217;BME280;65567;55.684;37.570;2023-02-11T12:53:57;98558.31;;;1.62;49.43
70217;BME280;65567;55.684;37.570;2023-02-11T12:57:34;98562.19;;;1.46;49.91
70217;BME280;65567;55.684;37.570;2023-02-11T12:59:46;98549.63;;;1.67;49.57
70217;BME280;65567;55.684;37.570;2023-02-11T13:05:33;98528.72;;;1.76;49.54
70217;BME280;65567;55.684;37.570;2023-02-11T13:08:16;98519.81;;;1.53;50.16
70217;BME280;65567;55.684;37.570;2023-02-11T13:10:50;98508.63;;;1.54;50.33
70217;BME280;65567;55.684;37.570;2023-02-11T13:13:36;98507.78;;;1.54;50.50
70217;BME280;65567;55.684;37.570;2023-02-11T13:17:00;98493.28;;;1.48;50.73
70217;BME280;65567;55.684;37.570;2023-02-11T13:32:23;98464.56;;;1.27;52.27
70217;BME280;65567;55.684;37.570;2023-02-11T13:34:54;98444.34;;;1.12;52.79
70217;BME280;65567;55.684;37.570;2023-02-11T13:37:38;98447.41;;;1.26;52.79
70217;BME280;65567;55.684;37.570;2023-02-11T13:40:25;98438.84;;;1.24;53.21
70217;BME280;65567;55.684;37.570;2023-02-11T13:43:00;98435.50;;;1.21;53.73
70217;BME280;65567;55.684;37.570;2023-02-11T13:45:35;98430.53;;;1.13;54.11
70217;BME280;65567;55.684;37.570;2023-02-11T13:48:14;98412.94;;;1.29;54.40
70217;BME280;65567;55.684;37.570;2023-02-11T13:50:48;98413.22;;;1.18;55.01
70217;BME280;65567;55.684;37.570;2023-02-11T13:53:16;98403.50;;;1.28;54.90
70217;BME280;65567;55.684;37.570;2023-02-11T13:55:48;98404.81;;;1.44;54.54
70217;BME280;65567;55.684;37.570;2023-02-11T13:58:17;98393.75;;;1.39;54.97
70217;BME280;65567;55.684;37.570;2023-02-11T14:00:49;98383.38;;;1.41;54.91
70217;BME280;65567;55.684;37.570;2023-02-11T14:03:30;98388.81;;;1.31;55.39
70217;BME280;65567;55.684;37.570;2023-02-11T14:06:21;98386.22;;;1.31;55.63
70217;BME280;65567;55.684;37.570;2023-02-11T14:11:42;98355.72;;;1.14;56.44
70217;BME280;65567;55.684;37.570;2023-02-11T14:14:26;98354.84;;;1.14;56.32
70217;BME280;65567;55.684;37.570;2023-02-11T14:19:46;98329.03;;;0.82;57.47
70217;BME280;65567;55.684;37.570;2023-02-11T14:22:18;98327.03;;;0.94;57.30
70217;BME280;65567;55.684;37.570;2023-02-11T14:24:52;98311.72;;;0.88;57.52
70217;BME280;65567;55.684;37.570;2023-02-11T14:27:33;98316.97;;;0.83;57.82
70217;BME280;65567;55.684;37.570;2023-02-11T14:30:10;98307.50;;;0.85;57.94
70217;BME280;65567;55.684;37.570;2023-02-11T14:32:53;98288.81;;;0.77;58.06
70217;BME280;65567;55.684;37.570;2023-02-11T14:41:09;98276.47;;;0.88;58.47
70217;BME280;65567;55.684;37.570;2023-02-11T14:43:40;98280.06;;;0.82;58.61
70217;BME280;65567;55.684;37.570;2023-02-11T14:46:10;98278.56;;;0.74;58.70
70217;BME280;65567;55.684;37.570;2023-02-11T14:48:38;98266.78;;;0.63;58.91
70217;BME280;65567;55.684;37.570;2023-02-11T14:51:12;98240.97;;;0.67;58.88
70217;BME280;65567;55.684;37.570;2023-02-11T14:53:49;98246.13;;;0.65;59.03
70217;BME280;65567;55.684;37.570;2023-02-11T14:56:28;98234.66;;;0.44;59.63